createdAt,value
2018-12-31T00:02:20.443Z,4.60
2018-12-31T00:04:48.651Z,4.40
2018-12-31T00:07:16.842Z,5.10
2018-12-31T00:09:45.074Z,6.13
2018-12-31T00:12:13.280Z,5.10
2018-12-31T00:14:41.511Z,6.33
2018-12-31T00:17:09.703Z,5.13
2018-12-31T00:19:37.967Z,5.60
2018-12-31T00:22:06.164Z,4.73
2018-12-31T00:24:34.380Z,4.57
2018-12-31T00:27:02.629Z,6.50
2018-12-31T00:29:30.819Z,5.20
2018-12-31T00:31:59.027Z,4.47
2018-12-31T00:34:27.251Z,4.87
2018-12-31T00:36:55.497Z,3.77
2018-12-31T00:39:23.691Z,5.40
2018-12-31T00:41:51.932Z,4.97
2018-12-31T00:44:20.139Z,4.30
2018-12-31T00:46:48.375Z,5.20
2018-12-31T00:49:16.578Z,4.50
2018-12-31T00:51:44.775Z,4.57
2018-12-31T00:54:12.994Z,4.50
2018-12-31T00:56:41.238Z,4.80
2018-12-31T00:59:09.432Z,5.00
2018-12-31T01:01:37.645Z,4.57
2018-12-31T01:04:05.874Z,4.93
2018-12-31T01:06:34.108Z,4.73
2018-12-31T01:09:02.310Z,4.47
2018-12-31T01:11:30.512Z,4.70
2018-12-31T01:13:58.742Z,5.53
2018-12-31T01:16:26.939Z,5.60
2018-12-31T01:18:55.167Z,4.57
2018-12-31T01:21:23.400Z,5.23
2018-12-31T01:23:51.604Z,4.73
2018-12-31T01:26:19.794Z,4.77
2018-12-31T01:28:48.026Z,4.50
2018-12-31T01:31:16.250Z,5.37
2018-12-31T01:33:44.447Z,4.57
2018-12-31T01:36:12.677Z,5.47
2018-12-31T01:38:40.889Z,4.70
2018-12-31T01:41:09.207Z,4.67
2018-12-31T01:43:37.410Z,5.03
2018-12-31T01:46:05.649Z,3.60
2018-12-31T01:48:33.860Z,4.93
2018-12-31T01:51:02.065Z,5.10
2018-12-31T01:53:30.294Z,4.97
2018-12-31T01:55:58.496Z,4.90
2018-12-31T01:58:26.729Z,4.20
2018-12-31T02:00:54.945Z,4.87
2018-12-31T02:03:23.185Z,4.53
2018-12-31T02:05:51.401Z,4.37
2018-12-31T02:08:19.620Z,6.23
2018-12-31T02:10:47.839Z,4.03
2018-12-31T02:13:16.046Z,4.63
2018-12-31T02:15:44.267Z,4.07
2018-12-31T02:18:12.459Z,4.60
2018-12-31T02:20:40.706Z,3.83
2018-12-31T02:23:08.910Z,3.47
2018-12-31T02:25:37.104Z,4.37
2018-12-31T02:28:05.328Z,4.53
2018-12-31T02:30:33.515Z,4.73
2018-12-31T02:33:01.738Z,3.87
2018-12-31T02:35:29.954Z,4.30
2018-12-31T02:37:58.164Z,4.40
2018-12-31T02:40:26.376Z,4.13
2018-12-31T02:42:54.672Z,4.73
2018-12-31T02:45:22.903Z,3.80
2018-12-31T02:47:51.096Z,4.27
2018-12-31T02:50:19.312Z,4.23
2018-12-31T02:52:47.546Z,4.20
2018-12-31T02:55:15.748Z,3.83
2018-12-31T02:57:43.952Z,4.60
2018-12-31T03:00:12.187Z,4.50
2018-12-31T03:02:40.385Z,3.97
2018-12-31T03:05:08.624Z,3.87
2018-12-31T03:07:36.836Z,4.40
2018-12-31T03:10:05.228Z,3.97
2018-12-31T03:12:33.442Z,4.37
2018-12-31T03:15:01.661Z,3.70
2018-12-31T03:17:29.870Z,3.60
2018-12-31T03:19:58.100Z,3.90
2018-12-31T03:22:26.306Z,3.20
2018-12-31T03:24:54.537Z,3.00
2018-12-31T03:27:22.741Z,4.20
2018-12-31T03:29:50.963Z,4.23
2018-12-31T03:32:19.164Z,3.53
2018-12-31T03:34:47.396Z,3.70
2018-12-31T03:37:15.608Z,3.60
2018-12-31T03:39:43.841Z,3.40
2018-12-31T03:42:12.062Z,4.00
2018-12-31T03:44:40.272Z,3.60
2018-12-31T03:47:08.507Z,4.77
2018-12-31T03:49:36.710Z,3.40
2018-12-31T03:52:04.932Z,3.80
2018-12-31T03:54:33.124Z,3.97
2018-12-31T03:57:01.371Z,3.40
2018-12-31T03:59:29.605Z,4.43
2018-12-31T04:01:57.832Z,4.07
2018-12-31T04:04:26.031Z,3.27
2018-12-31T04:06:54.263Z,5.30
2018-12-31T04:09:22.469Z,2.83
2018-12-31T04:11:50.705Z,3.30
2018-12-31T04:14:18.899Z,3.80
2018-12-31T04:16:47.110Z,3.40
2018-12-31T04:19:15.305Z,3.23
2018-12-31T04:21:43.528Z,3.43
2018-12-31T04:24:11.752Z,3.03
2018-12-31T04:26:39.953Z,3.07
2018-12-31T04:29:08.172Z,3.63
2018-12-31T04:31:36.405Z,3.50
2018-12-31T04:34:04.640Z,3.57
2018-12-31T04:36:32.844Z,3.00
2018-12-31T04:39:01.042Z,3.70
2018-12-31T04:41:29.257Z,3.10
2018-12-31T04:43:57.477Z,3.63
2018-12-31T04:46:25.718Z,3.50
2018-12-31T04:48:53.911Z,3.30
2018-12-31T04:51:22.158Z,3.67
2018-12-31T04:53:50.376Z,3.40
2018-12-31T04:56:18.594Z,3.63
2018-12-31T04:58:46.815Z,3.20
2018-12-31T05:01:15.008Z,3.23
2018-12-31T05:03:43.236Z,3.30
2018-12-31T05:06:11.463Z,3.10
2018-12-31T05:08:39.672Z,3.17
2018-12-31T05:11:07.869Z,2.93
2018-12-31T05:13:36.104Z,3.10
2018-12-31T05:16:04.308Z,3.67
2018-12-31T05:18:32.545Z,3.17
2018-12-31T05:21:00.749Z,2.90
2018-12-31T05:23:28.958Z,3.00
2018-12-31T05:25:57.163Z,3.33
2018-12-31T05:28:25.371Z,2.93
2018-12-31T05:30:53.603Z,2.83
2018-12-31T05:33:21.827Z,2.87
2018-12-31T05:35:50.009Z,2.73
2018-12-31T05:38:18.237Z,2.70
2018-12-31T05:40:46.435Z,2.43
2018-12-31T05:43:14.669Z,3.03
2018-12-31T05:45:42.861Z,3.03
2018-12-31T05:48:11.079Z,3.07
2018-12-31T05:50:39.301Z,2.77
2018-12-31T05:53:07.523Z,2.70
2018-12-31T05:55:35.749Z,3.10
2018-12-31T05:58:03.944Z,2.57
2018-12-31T06:00:32.838Z,2.97
2018-12-31T06:03:01.035Z,3.03
2018-12-31T06:05:29.249Z,2.97
2018-12-31T06:07:57.442Z,2.80
2018-12-31T06:10:25.646Z,2.20
2018-12-31T06:12:53.880Z,3.00
2018-12-31T06:15:22.075Z,2.80
2018-12-31T06:17:50.300Z,2.27
2018-12-31T06:20:18.531Z,2.60
2018-12-31T06:22:46.767Z,2.87
2018-12-31T06:25:14.962Z,2.83
2018-12-31T06:27:43.180Z,2.60
2018-12-31T06:30:11.423Z,3.03
2018-12-31T06:32:39.621Z,2.70
2018-12-31T06:35:07.848Z,3.07
2018-12-31T06:37:36.059Z,2.47
2018-12-31T06:40:04.655Z,2.40
2018-12-31T06:42:32.844Z,3.03
2018-12-31T06:45:01.074Z,2.10
2018-12-31T06:47:29.282Z,2.67
2018-12-31T06:49:57.510Z,2.50
2018-12-31T06:52:25.736Z,3.60
2018-12-31T06:54:53.934Z,2.23
2018-12-31T06:57:22.153Z,3.73
2018-12-31T06:59:50.722Z,2.20
2018-12-31T07:02:18.951Z,2.73
2018-12-31T07:04:47.144Z,2.90
2018-12-31T07:07:15.346Z,2.30
2018-12-31T07:09:43.567Z,2.47
2018-12-31T07:12:11.765Z,2.70
2018-12-31T07:14:40.000Z,2.40
2018-12-31T07:17:08.224Z,2.60
2018-12-31T07:19:36.437Z,2.23
2018-12-31T07:22:04.636Z,2.37
2018-12-31T07:24:32.836Z,2.33
2018-12-31T07:27:01.064Z,2.20
2018-12-31T07:29:29.263Z,2.20
2018-12-31T07:31:57.494Z,2.70
2018-12-31T07:34:25.680Z,2.53
2018-12-31T07:36:53.912Z,2.37
2018-12-31T07:39:22.112Z,2.53
2018-12-31T07:41:50.328Z,2.30
2018-12-31T07:44:18.539Z,2.17
2018-12-31T07:46:46.774Z,2.33
2018-12-31T07:49:14.995Z,2.10
2018-12-31T07:51:43.252Z,2.57
2018-12-31T07:54:11.445Z,2.27
2018-12-31T07:56:39.639Z,2.67
2018-12-31T07:59:07.872Z,1.90
2018-12-31T08:01:36.060Z,2.70
2018-12-31T08:04:04.271Z,2.77
2018-12-31T08:06:32.502Z,2.17
2018-12-31T08:09:00.707Z,2.80
2018-12-31T08:11:28.920Z,2.83
2018-12-31T08:13:57.133Z,2.80
2018-12-31T08:16:25.356Z,2.77
2018-12-31T08:18:53.658Z,2.93
2018-12-31T08:21:21.887Z,2.33
2018-12-31T08:23:50.082Z,2.27
2018-12-31T08:26:18.311Z,2.30
2018-12-31T08:28:46.502Z,3.53
2018-12-31T08:31:14.730Z,1.87
2018-12-31T08:33:42.926Z,2.40
2018-12-31T08:36:11.152Z,2.47
2018-12-31T08:38:39.360Z,2.10
2018-12-31T08:41:07.568Z,3.07
2018-12-31T08:43:35.800Z,2.23
2018-12-31T08:46:04.027Z,2.60
2018-12-31T08:48:32.261Z,2.33
2018-12-31T08:51:00.487Z,2.03
2018-12-31T08:53:28.717Z,1.80
2018-12-31T08:55:56.923Z,3.10
2018-12-31T08:58:25.177Z,2.40
2018-12-31T09:00:53.342Z,2.67
2018-12-31T09:03:21.535Z,2.70
2018-12-31T09:05:49.765Z,2.70
2018-12-31T09:08:17.959Z,2.37
2018-12-31T09:10:46.205Z,2.27
2018-12-31T09:13:14.434Z,2.10
2018-12-31T09:15:42.659Z,2.60
2018-12-31T09:18:10.866Z,2.40
2018-12-31T09:20:39.071Z,2.63
2018-12-31T09:23:07.297Z,2.53
2018-12-31T09:25:35.511Z,2.23
2018-12-31T09:28:03.735Z,2.57
2018-12-31T09:30:31.955Z,2.27
2018-12-31T09:33:00.140Z,2.43
2018-12-31T09:35:28.367Z,2.17
2018-12-31T09:37:56.562Z,1.73
2018-12-31T09:40:24.805Z,2.50
2018-12-31T09:42:53.013Z,2.40
2018-12-31T09:45:21.242Z,2.10
2018-12-31T09:47:49.458Z,2.47
2018-12-31T09:50:17.835Z,2.43
2018-12-31T09:52:46.028Z,2.00
2018-12-31T09:55:14.233Z,1.67
2018-12-31T09:57:42.449Z,2.27
2018-12-31T10:00:10.653Z,2.03
2018-12-31T10:02:38.869Z,1.80
2018-12-31T10:05:07.074Z,3.30
2018-12-31T10:07:35.298Z,3.27
2018-12-31T10:10:03.535Z,2.03
2018-12-31T10:12:31.745Z,2.07
2018-12-31T10:14:59.947Z,2.30
2018-12-31T10:17:28.170Z,2.10
2018-12-31T10:19:56.395Z,1.83
2018-12-31T10:22:24.629Z,1.90
2018-12-31T10:24:52.856Z,1.53
2018-12-31T10:27:21.071Z,2.17
2018-12-31T10:29:49.264Z,1.73
2018-12-31T10:32:17.478Z,2.03
2018-12-31T10:34:45.784Z,2.10
2018-12-31T10:37:13.925Z,2.00
2018-12-31T10:39:42.139Z,2.17
2018-12-31T10:42:10.346Z,2.13
2018-12-31T10:44:38.585Z,1.93
2018-12-31T10:47:06.779Z,1.70
2018-12-31T10:49:35.009Z,2.17
2018-12-31T10:52:03.216Z,2.10
2018-12-31T10:54:31.447Z,1.90
2018-12-31T10:56:59.675Z,1.87
2018-12-31T10:59:27.888Z,2.27
2018-12-31T11:01:56.107Z,2.27
2018-12-31T11:04:24.355Z,1.77
2018-12-31T11:06:52.558Z,2.17
2018-12-31T11:09:20.787Z,1.90
2018-12-31T11:11:48.994Z,2.33
2018-12-31T11:14:17.223Z,1.83
2018-12-31T11:16:45.501Z,3.17
2018-12-31T11:19:13.688Z,2.50
2018-12-31T11:21:41.909Z,2.17
2018-12-31T11:24:10.122Z,1.70
2018-12-31T11:26:38.324Z,1.53
2018-12-31T11:29:06.563Z,1.70
2018-12-31T11:31:34.770Z,1.83
2018-12-31T11:34:02.984Z,1.63
2018-12-31T11:36:32.494Z,2.10
2018-12-31T11:39:00.880Z,2.17
2018-12-31T11:41:29.092Z,2.27
2018-12-31T11:43:57.312Z,1.40
2018-12-31T11:46:25.499Z,1.40
2018-12-31T11:48:53.724Z,1.60
2018-12-31T11:51:21.934Z,1.77
2018-12-31T11:53:50.160Z,1.70
2018-12-31T11:56:18.368Z,2.30
2018-12-31T11:58:46.566Z,1.87
2018-12-31T12:01:14.798Z,1.30
2018-12-31T12:03:43.018Z,1.90
2018-12-31T12:06:11.276Z,1.60
2018-12-31T12:08:39.462Z,1.90
2018-12-31T12:11:07.684Z,1.50
2018-12-31T12:13:35.895Z,2.03
2018-12-31T12:16:04.133Z,1.73
2018-12-31T12:18:32.365Z,2.30
2018-12-31T12:21:00.578Z,2.10
2018-12-31T12:23:28.805Z,2.13
2018-12-31T12:25:57.006Z,2.40
2018-12-31T12:28:25.238Z,2.03
2018-12-31T12:30:53.441Z,2.63
2018-12-31T12:33:21.671Z,1.47
2018-12-31T12:35:49.895Z,2.17
2018-12-31T12:38:18.469Z,3.40
2018-12-31T12:40:46.696Z,1.43
2018-12-31T12:43:14.893Z,2.73
2018-12-31T12:45:43.114Z,1.90
2018-12-31T12:48:11.297Z,1.70
2018-12-31T12:50:39.523Z,1.80
2018-12-31T12:53:07.719Z,1.60
2018-12-31T12:55:35.919Z,2.13
2018-12-31T12:58:04.145Z,2.03
2018-12-31T13:00:32.344Z,1.73
2018-12-31T13:03:00.559Z,2.00
2018-12-31T13:05:28.761Z,2.00
2018-12-31T13:07:56.986Z,2.03
2018-12-31T13:10:25.188Z,2.43
2018-12-31T13:12:53.422Z,2.53
2018-12-31T13:15:21.616Z,1.97
2018-12-31T13:17:49.844Z,1.73
2018-12-31T13:20:18.056Z,1.70
2018-12-31T13:22:46.296Z,1.53
2018-12-31T13:25:14.518Z,3.87
2018-12-31T13:27:42.718Z,1.90
2018-12-31T13:30:11.226Z,1.80
2018-12-31T13:32:39.425Z,2.10
2018-12-31T13:35:07.650Z,1.77
2018-12-31T13:37:35.928Z,1.80
2018-12-31T13:40:04.738Z,2.23
2018-12-31T13:42:32.942Z,1.90
2018-12-31T13:45:01.160Z,1.87
2018-12-31T13:47:29.404Z,1.90
2018-12-31T13:49:57.612Z,1.67
2018-12-31T13:52:25.810Z,1.43
2018-12-31T13:54:54.022Z,1.40
2018-12-31T13:57:22.238Z,3.33
2018-12-31T13:59:50.488Z,2.47
2018-12-31T14:02:18.714Z,2.10
2018-12-31T14:04:46.958Z,1.57
2018-12-31T14:07:15.161Z,2.50
2018-12-31T14:09:43.400Z,1.90
2018-12-31T14:12:11.594Z,1.40
2018-12-31T14:14:39.806Z,1.90
2018-12-31T14:17:08.028Z,1.97
2018-12-31T14:19:36.242Z,1.93
2018-12-31T14:22:04.724Z,1.70
2018-12-31T14:24:33.033Z,2.50
2018-12-31T14:27:01.278Z,1.70
2018-12-31T14:29:29.494Z,2.10
2018-12-31T14:31:57.724Z,1.83
2018-12-31T14:34:26.233Z,2.13
2018-12-31T14:36:54.460Z,2.00
2018-12-31T14:39:22.695Z,1.73
2018-12-31T14:41:50.914Z,1.70
2018-12-31T14:44:19.110Z,1.53
2018-12-31T14:46:47.326Z,1.57
2018-12-31T14:49:15.556Z,1.73
2018-12-31T14:51:43.757Z,1.30
2018-12-31T14:54:12.002Z,1.40
2018-12-31T14:56:40.198Z,1.33
2018-12-31T14:59:08.412Z,1.90
2018-12-31T15:01:36.626Z,1.40
2018-12-31T15:04:04.847Z,2.20
2018-12-31T15:06:33.076Z,1.73
2018-12-31T15:09:02.669Z,2.00
2018-12-31T15:11:31.004Z,1.87
2018-12-31T15:13:59.520Z,1.80
2018-12-31T15:16:27.746Z,1.93
2018-12-31T15:18:55.968Z,1.70
2018-12-31T15:21:24.172Z,1.73
2018-12-31T15:23:52.423Z,1.77
2018-12-31T15:26:20.998Z,2.30
2018-12-31T15:28:49.230Z,2.17
2018-12-31T15:31:17.469Z,1.50
2018-12-31T15:33:45.714Z,1.93
2018-12-31T15:36:13.908Z,1.40
2018-12-31T15:38:42.104Z,1.57
2018-12-31T15:41:10.318Z,1.93
2018-12-31T15:43:38.532Z,2.03
2018-12-31T15:46:06.768Z,2.27
2018-12-31T15:48:34.964Z,1.97
2018-12-31T15:51:03.210Z,1.63
2018-12-31T15:53:31.804Z,1.83
2018-12-31T15:56:00.020Z,1.40
2018-12-31T15:58:28.272Z,1.93
2018-12-31T16:00:56.499Z,1.73
2018-12-31T16:03:24.709Z,1.63
2018-12-31T16:05:52.942Z,1.83
2018-12-31T16:08:21.150Z,1.70
2018-12-31T16:10:49.374Z,1.70
2018-12-31T16:13:17.598Z,1.60
2018-12-31T16:15:46.307Z,1.47
2018-12-31T16:18:14.740Z,1.50
2018-12-31T16:20:42.928Z,1.20
2018-12-31T16:23:11.231Z,1.23
2018-12-31T16:25:39.437Z,1.70
2018-12-31T16:28:07.688Z,1.63
2018-12-31T16:30:35.879Z,1.80
2018-12-31T16:33:04.393Z,2.07
2018-12-31T16:35:32.635Z,1.47
2018-12-31T16:38:00.853Z,2.60
2018-12-31T16:40:29.053Z,2.00
2018-12-31T16:42:57.279Z,1.97
2018-12-31T16:45:25.486Z,1.50
2018-12-31T16:47:53.714Z,1.63
2018-12-31T16:50:21.916Z,2.17
2018-12-31T16:52:50.151Z,1.67
2018-12-31T16:55:18.350Z,1.47
2018-12-31T16:57:46.581Z,1.80
2018-12-31T17:00:14.785Z,1.70
2018-12-31T17:02:43.021Z,1.77
2018-12-31T17:05:11.225Z,1.70
2018-12-31T17:07:39.429Z,1.23
2018-12-31T17:10:09.295Z,2.07
2018-12-31T17:12:37.784Z,1.67
2018-12-31T17:15:06.262Z,2.13
2018-12-31T17:17:34.465Z,1.70
2018-12-31T17:20:02.706Z,1.77
2018-12-31T17:22:30.897Z,1.90
2018-12-31T17:24:59.137Z,2.33
2018-12-31T17:27:27.353Z,1.97
2018-12-31T17:29:55.631Z,2.00
2018-12-31T17:32:23.839Z,1.93
2018-12-31T17:34:52.048Z,2.27
2018-12-31T17:37:20.291Z,2.17
2018-12-31T17:39:48.865Z,1.73
2018-12-31T17:42:17.084Z,2.10
2018-12-31T17:44:45.296Z,1.63
2018-12-31T17:47:13.518Z,5.20
2018-12-31T17:49:41.799Z,3.50
2018-12-31T17:52:10.023Z,2.57
2018-12-31T17:54:38.251Z,2.33
2018-12-31T17:57:06.461Z,2.67
2018-12-31T17:59:34.693Z,2.80
2018-12-31T18:02:02.901Z,3.30
2018-12-31T18:04:31.115Z,2.40
2018-12-31T18:06:59.591Z,2.67
2018-12-31T18:09:27.821Z,2.70
2018-12-31T18:11:56.064Z,2.93
2018-12-31T18:14:24.303Z,2.70
2018-12-31T18:16:52.512Z,2.50
2018-12-31T18:19:21.116Z,2.70
2018-12-31T18:21:49.325Z,2.53
2018-12-31T18:24:17.528Z,2.70
2018-12-31T18:26:45.757Z,3.43
2018-12-31T18:29:13.975Z,2.80
2018-12-31T18:31:42.185Z,2.67
2018-12-31T18:34:10.400Z,2.40
2018-12-31T18:36:38.627Z,3.03
2018-12-31T18:39:07.195Z,2.83
2018-12-31T18:41:35.422Z,2.57
2018-12-31T18:44:03.627Z,4.50
2018-12-31T18:46:32.149Z,2.83
2018-12-31T18:49:00.349Z,2.60
2018-12-31T18:51:28.574Z,2.53
2018-12-31T18:53:56.775Z,3.97
2018-12-31T18:56:24.993Z,2.60
2018-12-31T18:58:53.199Z,3.13
2018-12-31T19:01:21.438Z,2.60
2018-12-31T19:03:49.645Z,2.60
2018-12-31T19:06:17.854Z,2.63
2018-12-31T19:08:46.158Z,2.63
2018-12-31T19:11:14.364Z,3.43
2018-12-31T19:13:42.593Z,3.67
2018-12-31T19:16:10.797Z,3.20
2018-12-31T19:18:39.034Z,4.60
2018-12-31T19:21:07.251Z,4.00
2018-12-31T19:23:35.469Z,3.67
2018-12-31T19:26:03.772Z,3.63
2018-12-31T19:28:32.004Z,2.93
2018-12-31T19:31:00.213Z,3.00
2018-12-31T19:33:28.460Z,3.33
2018-12-31T19:35:56.679Z,3.53
2018-12-31T19:38:24.884Z,3.30
2018-12-31T19:40:53.088Z,3.30
2018-12-31T19:43:21.299Z,3.20
2018-12-31T19:45:49.553Z,3.20
2018-12-31T19:48:17.758Z,3.67
2018-12-31T19:50:45.959Z,5.13
2018-12-31T19:53:14.592Z,3.30
2018-12-31T19:55:42.797Z,3.20
2018-12-31T19:58:11.906Z,3.73
2018-12-31T20:00:40.131Z,3.40
2018-12-31T20:03:08.319Z,3.27
2018-12-31T20:05:36.551Z,4.67
2018-12-31T20:08:04.758Z,3.60
2018-12-31T20:10:34.585Z,4.07
2018-12-31T20:13:02.962Z,3.60
2018-12-31T20:15:31.174Z,3.73
2018-12-31T20:17:59.420Z,3.93
2018-12-31T20:20:27.932Z,4.43
2018-12-31T20:22:56.156Z,4.63
2018-12-31T20:25:24.396Z,4.17
2018-12-31T20:27:52.610Z,4.93
2018-12-31T20:30:20.845Z,3.47
2018-12-31T20:32:49.061Z,4.43
2018-12-31T20:35:17.436Z,4.43
2018-12-31T20:37:45.622Z,4.53
2018-12-31T20:40:13.849Z,4.47
2018-12-31T20:42:42.062Z,4.50
2018-12-31T20:45:10.298Z,3.90
2018-12-31T20:47:38.514Z,4.47
2018-12-31T20:50:07.364Z,4.20
2018-12-31T20:52:35.591Z,3.90
2018-12-31T20:55:03.965Z,4.33
2018-12-31T20:57:32.191Z,4.07
2018-12-31T21:00:00.581Z,3.97
2018-12-31T21:02:28.886Z,4.17
2018-12-31T21:04:57.090Z,4.07
2018-12-31T21:07:25.404Z,5.33
2018-12-31T21:09:53.628Z,4.07
2018-12-31T21:12:21.822Z,4.43
2018-12-31T21:14:50.032Z,4.87
2018-12-31T21:17:18.539Z,3.90
2018-12-31T21:19:46.752Z,4.83
2018-12-31T21:22:14.947Z,5.23
2018-12-31T21:24:43.174Z,4.73
2018-12-31T21:27:11.375Z,4.53
2018-12-31T21:29:39.593Z,5.23
2018-12-31T21:32:07.832Z,4.43
2018-12-31T21:34:36.038Z,4.37
2018-12-31T21:37:04.271Z,5.40
2018-12-31T21:39:32.456Z,6.17
2018-12-31T21:42:00.659Z,6.20
2018-12-31T21:44:29.263Z,4.93
2018-12-31T21:46:57.466Z,5.83
2018-12-31T21:49:25.692Z,4.83
2018-12-31T21:51:53.912Z,4.33
2018-12-31T21:54:22.105Z,5.20
2018-12-31T21:56:50.331Z,5.07
2018-12-31T21:59:18.543Z,4.77
2018-12-31T22:01:46.772Z,5.10
2018-12-31T22:04:15.049Z,5.33
2018-12-31T22:06:43.258Z,5.07
2018-12-31T22:09:11.482Z,4.50
2018-12-31T22:11:39.696Z,5.70
2018-12-31T22:14:07.927Z,5.67
2018-12-31T22:16:36.141Z,4.37
2018-12-31T22:19:04.408Z,6.03
2018-12-31T22:21:32.607Z,4.47
2018-12-31T22:24:00.799Z,4.57
2018-12-31T22:26:29.199Z,4.67
2018-12-31T22:28:57.439Z,4.50
2018-12-31T22:31:25.668Z,5.30
2018-12-31T22:33:53.872Z,4.67
2018-12-31T22:36:22.109Z,4.93
2018-12-31T22:38:50.311Z,4.93
2018-12-31T22:41:18.501Z,5.27
2018-12-31T22:43:46.735Z,6.03
2018-12-31T22:46:14.963Z,6.20
2018-12-31T22:48:43.163Z,6.23
2018-12-31T22:51:11.430Z,5.43
2018-12-31T22:53:39.663Z,4.93
2018-12-31T22:56:07.876Z,5.40
2018-12-31T22:58:36.112Z,5.20
2018-12-31T23:01:04.330Z,5.57
2018-12-31T23:03:32.560Z,5.07
2018-12-31T23:06:01.138Z,5.10
2018-12-31T23:08:29.338Z,5.33
2018-12-31T23:10:57.592Z,6.53
2018-12-31T23:13:26.534Z,6.27
2018-12-31T23:15:54.736Z,5.60
2018-12-31T23:18:22.960Z,4.97
2018-12-31T23:20:51.158Z,5.63
2018-12-31T23:23:19.390Z,4.90
2018-12-31T23:25:47.617Z,6.00
2018-12-31T23:28:15.856Z,6.20
2018-12-31T23:30:44.079Z,6.23
2018-12-31T23:33:12.568Z,5.23
2018-12-31T23:35:40.794Z,4.67
2018-12-31T23:38:09.005Z,6.70
2018-12-31T23:40:37.242Z,4.87
2018-12-31T23:43:06.593Z,7.10
2018-12-31T23:45:35.137Z,5.73
2018-12-31T23:48:03.378Z,5.13
2018-12-31T23:50:31.591Z,6.23
2018-12-31T23:52:59.820Z,6.97
2018-12-31T23:55:28.046Z,5.57
2018-12-31T23:57:56.239Z,6.33
